13°C Temp
2°C Dewpoint
% Humidity
Temperature
8 KM/H
5 MPH
4 KTS
220°
South West

Wind Speed
Clear
Conditions
Pressure 1021.92 (hPa) - 30.18 (in)
Visibility 6.2 (mi) - 10.0 (km)

Current Conditions
EFHK
Location 67(km)
Metar :EFHK 251950Z 22004KT CAVOK 13/02 Q1022 NOSIG
Thu 25th April 22:50 pm

Airport
  Metar Aviation API Data Provided by https://www.checkwx.com/ PHP scripts by weather34.com ©2019